sensor_id;sensor_type;location;lat;lon;timestamp;temperature;humidity
612;DHT22;293;53.888;11.464;2022-10-20T00:00:20;6.10;99.90
612;DHT22;293;53.888;11.464;2022-10-20T00:02:47;6.10;99.90
612;DHT22;293;53.888;11.464;2022-10-20T00:05:14;6.10;99.90
612;DHT22;293;53.888;11.464;2022-10-20T00:07:41;6.10;99.90
612;DHT22;293;53.888;11.464;2022-10-20T00:10:09;6.10;99.90
612;DHT22;293;53.888;11.464;2022-10-20T00:12:36;6.10;99.90
612;DHT22;293;53.888;11.464;2022-10-20T00:15:03;6.10;99.90
612;DHT22;293;53.888;11.464;2022-10-20T00:17:30;6.10;99.90
612;DHT22;293;53.888;11.464;2022-10-20T00:19:57;6.10;99.90
612;DHT22;293;53.888;11.464;2022-10-20T00:22:24;6.10;99.90
612;DHT22;293;53.888;11.464;2022-10-20T00:24:51;6.20;99.90
612;DHT22;293;53.888;11.464;2022-10-20T00:27:19;6.20;99.90
612;DHT22;293;53.888;11.464;2022-10-20T00:29:47;6.20;99.90
612;DHT22;293;53.888;11.464;2022-10-20T00:32:14;6.10;99.90
612;DHT22;293;53.888;11.464;2022-10-20T00:34:40;6.20;99.90
612;DHT22;293;53.888;11.464;2022-10-20T00:37:07;6.10;99.90
612;DHT22;293;53.888;11.464;2022-10-20T00:39:34;6.10;99.90
612;DHT22;293;53.888;11.464;2022-10-20T00:42:01;6.10;99.90
612;DHT22;293;53.888;11.464;2022-10-20T00:44:52;6.10;99.90
612;DHT22;293;53.888;11.464;2022-10-20T00:47:30;6.10;99.90
612;DHT22;293;53.888;11.464;2022-10-20T00:50:02;6.10;99.90
612;DHT22;293;53.888;11.464;2022-10-20T00:52:31;6.10;99.90
612;DHT22;293;53.888;11.464;2022-10-20T00:54:59;6.10;99.90
612;DHT22;293;53.888;11.464;2022-10-20T00:57:26;6.10;99.90
612;DHT22;293;53.888;11.464;2022-10-20T00:59:55;6.10;99.90
612;DHT22;293;53.888;11.464;2022-10-20T01:02:22;6.10;99.90
612;DHT22;293;53.888;11.464;2022-10-20T01:04:49;6.10;99.90
612;DHT22;293;53.888;11.464;2022-10-20T01:07:16;6.10;99.90
612;DHT22;293;53.888;11.464;2022-10-20T01:09:43;6.10;99.90
612;DHT22;293;53.888;11.464;2022-10-20T01:12:20;6.10;99.90
612;DHT22;293;53.888;11.464;2022-10-20T01:14:56;6.20;99.90
612;DHT22;293;53.888;11.464;2022-10-20T01:17:34;6.20;99.90
612;DHT22;293;53.888;11.464;2022-10-20T01:20:22;6.20;99.90
612;DHT22;293;53.888;11.464;2022-10-20T01:23:23;6.20;99.90
612;DHT22;293;53.888;11.464;2022-10-20T01:26:09;6.20;99.90
612;DHT22;293;53.888;11.464;2022-10-20T01:28:46;6.10;99.90
612;DHT22;293;53.888;11.464;2022-10-20T01:31:20;6.10;99.90
612;DHT22;293;53.888;11.464;2022-10-20T01:33:54;6.10;99.90
612;DHT22;293;53.888;11.464;2022-10-20T01:36:27;6.00;99.90
612;DHT22;293;53.888;11.464;2022-10-20T01:39:02;6.00;99.90
612;DHT22;293;53.888;11.464;2022-10-20T01:41:32;6.10;99.90
612;DHT22;293;53.888;11.464;2022-10-20T01:44:04;6.00;99.90
612;DHT22;293;53.888;11.464;2022-10-20T01:46:33;6.00;99.90
612;DHT22;293;53.888;11.464;2022-10-20T01:49:02;6.00;99.90
612;DHT22;293;53.888;11.464;2022-10-20T01:51:30;6.00;99.90
612;DHT22;293;53.888;11.464;2022-10-20T01:53:57;6.00;99.90
612;DHT22;293;53.888;11.464;2022-10-20T01:56:26;6.00;99.90
612;DHT22;293;53.888;11.464;2022-10-20T01:59:20;5.90;99.90
612;DHT22;293;53.888;11.464;2022-10-20T02:02:27;5.90;99.90
612;DHT22;293;53.888;11.464;2022-10-20T02:05:13;6.00;99.90
612;DHT22;293;53.888;11.464;2022-10-20T02:07:42;5.90;99.90
612;DHT22;293;53.888;11.464;2022-10-20T02:10:12;5.90;99.90
612;DHT22;293;53.888;11.464;2022-10-20T02:12:44;5.90;99.90
612;DHT22;293;53.888;11.464;2022-10-20T02:15:16;5.80;99.90
612;DHT22;293;53.888;11.464;2022-10-20T02:17:45;5.80;99.90
612;DHT22;293;53.888;11.464;2022-10-20T02:20:13;5.80;99.90
612;DHT22;293;53.888;11.464;2022-10-20T02:22:41;5.80;99.90
612;DHT22;293;53.888;11.464;2022-10-20T02:25:10;5.80;99.90
612;DHT22;293;53.888;11.464;2022-10-20T02:27:39;5.80;99.90
612;DHT22;293;53.888;11.464;2022-10-20T02:30:09;5.80;99.90
612;DHT22;293;53.888;11.464;2022-10-20T02:32:39;5.80;99.90
612;DHT22;293;53.888;11.464;2022-10-20T02:35:10;5.70;99.90
612;DHT22;293;53.888;11.464;2022-10-20T02:37:38;5.70;99.90
612;DHT22;293;53.888;11.464;2022-10-20T02:40:06;5.70;99.90
612;DHT22;293;53.888;11.464;2022-10-20T02:42:33;5.70;99.90
612;DHT22;293;53.888;11.464;2022-10-20T02:45:00;5.70;99.90
612;DHT22;293;53.888;11.464;2022-10-20T02:47:27;5.60;99.90
612;DHT22;293;53.888;11.464;2022-10-20T02:49:55;5.70;99.90
612;DHT22;293;53.888;11.464;2022-10-20T02:52:22;5.70;99.90
612;DHT22;293;53.888;11.464;2022-10-20T02:54:49;5.70;99.90
612;DHT22;293;53.888;11.464;2022-10-20T02:57:16;5.60;99.90
612;DHT22;293;53.888;11.464;2022-10-20T02:59:43;5.60;99.90
612;DHT22;293;53.888;11.464;2022-10-20T03:02:09;5.60;99.90
612;DHT22;293;53.888;11.464;2022-10-20T03:04:36;5.70;99.90
612;DHT22;293;53.888;11.464;2022-10-20T03:07:04;5.70;99.90
612;DHT22;293;53.888;11.464;2022-10-20T03:09:31;5.70;99.90
612;DHT22;293;53.888;11.464;2022-10-20T03:11:58;5.80;99.90
612;DHT22;293;53.888;11.464;2022-10-20T03:14:25;5.80;99.90
612;DHT22;293;53.888;11.464;2022-10-20T03:16:52;5.80;99.90
612;DHT22;293;53.888;11.464;2022-10-20T03:19:18;5.80;99.90
612;DHT22;293;53.888;11.464;2022-10-20T03:21:45;5.90;99.90
612;DHT22;293;53.888;11.464;2022-10-20T03:24:15;5.80;99.90
612;DHT22;293;53.888;11.464;2022-10-20T03:26:42;5.80;99.90
612;DHT22;293;53.888;11.464;2022-10-20T03:29:09;5.80;99.90
612;DHT22;293;53.888;11.464;2022-10-20T03:31:35;5.80;99.90
612;DHT22;293;53.888;11.464;2022-10-20T03:34:02;5.80;99.90
612;DHT22;293;53.888;11.464;2022-10-20T03:36:29;5.70;99.90
612;DHT22;293;53.888;11.464;2022-10-20T03:38:56;5.80;99.90
612;DHT22;293;53.888;11.464;2022-10-20T03:41:24;5.80;99.90
612;DHT22;293;53.888;11.464;2022-10-20T03:43:51;5.80;99.90
612;DHT22;293;53.888;11.464;2022-10-20T03:46:18;5.80;99.90
612;DHT22;293;53.888;11.464;2022-10-20T03:48:44;5.80;99.90
612;DHT22;293;53.888;11.464;2022-10-20T03:51:12;5.80;99.90
612;DHT22;293;53.888;11.464;2022-10-20T03:53:40;5.90;99.90
612;DHT22;293;53.888;11.464;2022-10-20T03:56:08;5.80;99.90
612;DHT22;293;53.888;11.464;2022-10-20T03:58:36;5.90;99.90
612;DHT22;293;53.888;11.464;2022-10-20T04:01:03;5.90;99.90
612;DHT22;293;53.888;11.464;2022-10-20T04:03:30;5.80;99.90
612;DHT22;293;53.888;11.464;2022-10-20T04:05:57;5.90;99.90
612;DHT22;293;53.888;11.464;2022-10-20T04:08:24;5.80;99.90
612;DHT22;293;53.888;11.464;2022-10-20T04:10:51;5.80;99.90
612;DHT22;293;53.888;11.464;2022-10-20T04:13:18;5.80;99.90
612;DHT22;293;53.888;11.464;2022-10-20T04:15:46;5.80;99.90
612;DHT22;293;53.888;11.464;2022-10-20T04:18:12;5.80;99.90
612;DHT22;293;53.888;11.464;2022-10-20T04:20:39;5.80;99.90
612;DHT22;293;53.888;11.464;2022-10-20T04:23:06;5.80;99.90
612;DHT22;293;53.888;11.464;2022-10-20T04:25:33;5.80;99.90
612;DHT22;293;53.888;11.464;2022-10-20T04:27:59;5.80;99.90
612;DHT22;293;53.888;11.464;2022-10-20T04:30:26;5.70;99.90
612;DHT22;293;53.888;11.464;2022-10-20T04:32:54;5.70;99.90
612;DHT22;293;53.888;11.464;2022-10-20T04:35:21;5.60;99.90
612;DHT22;293;53.888;11.464;2022-10-20T04:37:48;5.60;99.90
612;DHT22;293;53.888;11.464;2022-10-20T04:40:15;5.60;99.90
612;DHT22;293;53.888;11.464;2022-10-20T04:42:41;5.60;99.90
612;DHT22;293;53.888;11.464;2022-10-20T04:45:09;5.60;99.90
612;DHT22;293;53.888;11.464;2022-10-20T04:47:36;5.60;99.90
612;DHT22;293;53.888;11.464;2022-10-20T04:50:05;5.60;99.90
612;DHT22;293;53.888;11.464;2022-10-20T04:52:32;5.60;99.90
612;DHT22;293;53.888;11.464;2022-10-20T04:54:58;5.60;99.90
612;DHT22;293;53.888;11.464;2022-10-20T04:57:26;5.60;99.90
612;DHT22;293;53.888;11.464;2022-10-20T04:59:53;5.60;99.90
612;DHT22;293;53.888;11.464;2022-10-20T05:02:19;5.60;99.90
612;DHT22;293;53.888;11.464;2022-10-20T05:04:46;5.50;99.90
612;DHT22;293;53.888;11.464;2022-10-20T05:07:14;5.50;99.90
612;DHT22;293;53.888;11.464;2022-10-20T05:09:41;5.50;99.90
612;DHT22;293;53.888;11.464;2022-10-20T05:12:08;5.50;99.90
612;DHT22;293;53.888;11.464;2022-10-20T05:14:35;5.50;99.90
612;DHT22;293;53.888;11.464;2022-10-20T05:17:01;5.50;99.90
612;DHT22;293;53.888;11.464;2022-10-20T05:19:28;5.50;99.90
612;DHT22;293;53.888;11.464;2022-10-20T05:21:55;5.50;99.90
612;DHT22;293;53.888;11.464;2022-10-20T05:24:23;5.50;99.90
612;DHT22;293;53.888;11.464;2022-10-20T05:26:52;5.50;99.90
612;DHT22;293;53.888;11.464;2022-10-20T05:29:19;5.50;99.90
612;DHT22;293;53.888;11.464;2022-10-20T05:31:46;5.60;99.90
612;DHT22;293;53.888;11.464;2022-10-20T05:34:12;5.60;99.90
612;DHT22;293;53.888;11.464;2022-10-20T05:36:39;5.60;99.90
612;DHT22;293;53.888;11.464;2022-10-20T05:39:06;5.60;99.90
612;DHT22;293;53.888;11.464;2022-10-20T05:41:34;5.60;99.90
612;DHT22;293;53.888;11.464;2022-10-20T05:44:03;5.50;99.90
612;DHT22;293;53.888;11.464;2022-10-20T05:46:31;5.50;99.90
612;DHT22;293;53.888;11.464;2022-10-20T05:48:59;5.50;99.90
612;DHT22;293;53.888;11.464;2022-10-20T05:51:28;5.40;99.90
612;DHT22;293;53.888;11.464;2022-10-20T05:53:56;5.50;99.90
612;DHT22;293;53.888;11.464;2022-10-20T05:56:24;5.50;99.90
612;DHT22;293;53.888;11.464;2022-10-20T05:58:53;5.50;99.90
612;DHT22;293;53.888;11.464;2022-10-20T06:01:22;5.60;99.90
612;DHT22;293;53.888;11.464;2022-10-20T06:03:50;5.60;99.90
612;DHT22;293;53.888;11.464;2022-10-20T06:06:18;5.50;99.90
612;DHT22;293;53.888;11.464;2022-10-20T06:08:46;5.50;99.90
612;DHT22;293;53.888;11.464;2022-10-20T06:11:14;5.50;99.90
612;DHT22;293;53.888;11.464;2022-10-20T06:13:40;5.60;99.90
612;DHT22;293;53.888;11.464;2022-10-20T06:16:11;5.60;99.90
612;DHT22;293;53.888;11.464;2022-10-20T06:18:38;5.60;99.90
612;DHT22;293;53.888;11.464;2022-10-20T06:21:10;5.60;99.90
612;DHT22;293;53.888;11.464;2022-10-20T06:23:37;5.50;99.90
612;DHT22;293;53.888;11.464;2022-10-20T06:26:06;5.50;99.90
612;DHT22;293;53.888;11.464;2022-10-20T06:28:34;5.50;99.90
612;DHT22;293;53.888;11.464;2022-10-20T06:31:10;5.50;99.90
612;DHT22;293;53.888;11.464;2022-10-20T06:33:38;5.50;99.90
612;DHT22;293;53.888;11.464;2022-10-20T06:36:05;5.60;99.90
612;DHT22;293;53.888;11.464;2022-10-20T06:38:32;5.60;99.90
612;DHT22;293;53.888;11.464;2022-10-20T06:41:00;5.60;99.90
612;DHT22;293;53.888;11.464;2022-10-20T06:43:27;5.60;99.90
612;DHT22;293;53.888;11.464;2022-10-20T06:45:56;5.70;99.90
612;DHT22;293;53.888;11.464;2022-10-20T06:48:25;5.70;99.90
612;DHT22;293;53.888;11.464;2022-10-20T06:50:55;5.80;99.90
612;DHT22;293;53.888;11.464;2022-10-20T06:53:22;5.80;99.90
612;DHT22;293;53.888;11.464;2022-10-20T06:55:55;5.90;99.90
612;DHT22;293;53.888;11.464;2022-10-20T06:58:22;5.90;99.90
612;DHT22;293;53.888;11.464;2022-10-20T07:00:57;6.00;99.90
612;DHT22;293;53.888;11.464;2022-10-20T07:03:26;6.00;99.90
612;DHT22;293;53.888;11.464;2022-10-20T07:05:53;6.00;99.90
612;DHT22;293;53.888;11.464;2022-10-20T07:08:20;6.10;99.90
612;DHT22;293;53.888;11.464;2022-10-20T07:10:47;6.20;99.90
612;DHT22;293;53.888;11.464;2022-10-20T07:13:22;6.30;99.90
612;DHT22;293;53.888;11.464;2022-10-20T07:15:51;6.30;99.90
612;DHT22;293;53.888;11.464;2022-10-20T07:18:18;6.40;99.90
612;DHT22;293;53.888;11.464;2022-10-20T07:20:46;6.50;99.90
612;DHT22;293;53.888;11.464;2022-10-20T07:23:13;6.50;99.90
612;DHT22;293;53.888;11.464;2022-10-20T07:25:40;6.50;99.90
612;DHT22;293;53.888;11.464;2022-10-20T07:28:07;6.60;99.90
612;DHT22;293;53.888;11.464;2022-10-20T07:30:37;6.70;99.90
612;DHT22;293;53.888;11.464;2022-10-20T07:33:04;6.70;99.90
612;DHT22;293;53.888;11.464;2022-10-20T07:35:31;6.70;99.90
612;DHT22;293;53.888;11.464;2022-10-20T07:37:59;6.90;99.90
612;DHT22;293;53.888;11.464;2022-10-20T07:40:26;6.90;99.90
612;DHT22;293;53.888;11.464;2022-10-20T07:42:53;6.90;99.90
612;DHT22;293;53.888;11.464;2022-10-20T07:45:20;7.00;99.90
612;DHT22;293;53.888;11.464;2022-10-20T07:47:47;7.10;99.90
612;DHT22;293;53.888;11.464;2022-10-20T07:50:14;7.10;99.90
612;DHT22;293;53.888;11.464;2022-10-20T07:52:40;7.20;99.90
612;DHT22;293;53.888;11.464;2022-10-20T07:55:09;7.30;99.90
612;DHT22;293;53.888;11.464;2022-10-20T07:57:35;7.30;99.90
612;DHT22;293;53.888;11.464;2022-10-20T08:00:03;7.40;99.90
612;DHT22;293;53.888;11.464;2022-10-20T08:02:30;7.40;99.90
612;DHT22;293;53.888;11.464;2022-10-20T08:04:57;7.50;99.90
612;DHT22;293;53.888;11.464;2022-10-20T08:07:23;7.50;99.90
612;DHT22;293;53.888;11.464;2022-10-20T08:09:50;7.60;99.90
612;DHT22;293;53.888;11.464;2022-10-20T08:12:18;7.70;99.90
612;DHT22;293;53.888;11.464;2022-10-20T08:14:45;7.80;99.90
612;DHT22;293;53.888;11.464;2022-10-20T08:17:12;7.90;99.90
612;DHT22;293;53.888;11.464;2022-10-20T08:19:39;7.90;99.90
612;DHT22;293;53.888;11.464;2022-10-20T08:22:06;8.00;99.90
612;DHT22;293;53.888;11.464;2022-10-20T08:24:32;8.10;99.90
612;DHT22;293;53.888;11.464;2022-10-20T08:26:59;8.10;99.90
612;DHT22;293;53.888;11.464;2022-10-20T08:29:28;8.20;99.90
612;DHT22;293;53.888;11.464;2022-10-20T08:31:55;8.20;99.90
612;DHT22;293;53.888;11.464;2022-10-20T08:34:21;8.30;99.90
612;DHT22;293;53.888;11.464;2022-10-20T08:36:48;8.40;99.90
612;DHT22;293;53.888;11.464;2022-10-20T08:39:15;8.50;99.90
612;DHT22;293;53.888;11.464;2022-10-20T08:41:44;8.50;99.90
612;DHT22;293;53.888;11.464;2022-10-20T08:44:17;8.60;99.90
612;DHT22;293;53.888;11.464;2022-10-20T08:46:46;8.60;99.90
612;DHT22;293;53.888;11.464;2022-10-20T08:49:17;8.70;99.90
612;DHT22;293;53.888;11.464;2022-10-20T08:51:45;8.80;99.90
612;DHT22;293;53.888;11.464;2022-10-20T08:54:14;8.90;99.90
612;DHT22;293;53.888;11.464;2022-10-20T08:56:42;9.00;99.90
612;DHT22;293;53.888;11.464;2022-10-20T08:59:22;9.10;99.90
612;DHT22;293;53.888;11.464;2022-10-20T09:01:53;9.20;99.90
612;DHT22;293;53.888;11.464;2022-10-20T09:04:22;9.30;99.90
612;DHT22;293;53.888;11.464;2022-10-20T09:06:54;9.40;99.90
612;DHT22;293;53.888;11.464;2022-10-20T09:09:23;9.50;99.90
612;DHT22;293;53.888;11.464;2022-10-20T09:11:50;9.50;99.90
612;DHT22;293;53.888;11.464;2022-10-20T09:14:17;9.50;99.90
612;DHT22;293;53.888;11.464;2022-10-20T09:16:46;9.60;99.90
612;DHT22;293;53.888;11.464;2022-10-20T09:19:18;9.70;99.90
612;DHT22;293;53.888;11.464;2022-10-20T09:21:50;9.80;99.90
612;DHT22;293;53.888;11.464;2022-10-20T09:24:17;9.90;99.90
612;DHT22;293;53.888;11.464;2022-10-20T09:26:46;10.00;99.90
612;DHT22;293;53.888;11.464;2022-10-20T09:29:16;10.00;99.90
612;DHT22;293;53.888;11.464;2022-10-20T09:31:45;10.00;99.90
612;DHT22;293;53.888;11.464;2022-10-20T09:34:24;10.10;99.90
612;DHT22;293;53.888;11.464;2022-10-20T09:36:54;10.20;99.90
612;DHT22;293;53.888;11.464;2022-10-20T09:39:25;10.20;99.90
612;DHT22;293;53.888;11.464;2022-10-20T09:41:59;10.40;99.90
612;DHT22;293;53.888;11.464;2022-10-20T09:44:29;10.40;99.90
612;DHT22;293;53.888;11.464;2022-10-20T09:46:59;10.60;99.90
612;DHT22;293;53.888;11.464;2022-10-20T09:49:30;10.70;99.90
612;DHT22;293;53.888;11.464;2022-10-20T09:51:59;10.70;99.90
612;DHT22;293;53.888;11.464;2022-10-20T09:54:27;10.80;99.90
612;DHT22;293;53.888;11.464;2022-10-20T09:57:04;10.90;99.90
612;DHT22;293;53.888;11.464;2022-10-20T09:59:33;11.00;99.90
612;DHT22;293;53.888;11.464;2022-10-20T10:02:03;11.10;99.90
612;DHT22;293;53.888;11.464;2022-10-20T10:04:52;11.20;99.90
612;DHT22;293;53.888;11.464;2022-10-20T10:07:29;11.30;99.90
612;DHT22;293;53.888;11.464;2022-10-20T10:10:00;11.40;99.90
612;DHT22;293;53.888;11.464;2022-10-20T10:12:28;11.50;99.90
612;DHT22;293;53.888;11.464;2022-10-20T10:14:58;11.60;99.90
612;DHT22;293;53.888;11.464;2022-10-20T10:17:28;11.70;99.90
612;DHT22;293;53.888;11.464;2022-10-20T10:19:57;11.70;99.90
612;DHT22;293;53.888;11.464;2022-10-20T10:22:24;11.90;99.90
612;DHT22;293;53.888;11.464;2022-10-20T10:24:53;11.90;99.90
612;DHT22;293;53.888;11.464;2022-10-20T10:27:23;11.90;99.90
612;DHT22;293;53.888;11.464;2022-10-20T10:29:51;11.90;99.90
612;DHT22;293;53.888;11.464;2022-10-20T10:32:22;11.90;99.90
612;DHT22;293;53.888;11.464;2022-10-20T10:35:03;11.90;99.90
612;DHT22;293;53.888;11.464;2022-10-20T10:37:33;12.00;99.90
612;DHT22;293;53.888;11.464;2022-10-20T10:40:01;12.10;99.90
612;DHT22;293;53.888;11.464;2022-10-20T10:42:44;12.10;99.90
612;DHT22;293;53.888;11.464;2022-10-20T10:45:21;12.10;99.90
612;DHT22;293;53.888;11.464;2022-10-20T10:50:55;12.30;99.90
612;DHT22;293;53.888;11.464;2022-10-20T10:53:31;12.40;99.90
612;DHT22;293;53.888;11.464;2022-10-20T10:56:10;12.50;99.90
612;DHT22;293;53.888;11.464;2022-10-20T10:58:45;12.50;99.90
612;DHT22;293;53.888;11.464;2022-10-20T11:01:23;12.60;99.90
612;DHT22;293;53.888;11.464;2022-10-20T11:04:04;12.70;99.90
612;DHT22;293;53.888;11.464;2022-10-20T11:06:40;12.70;99.90
612;DHT22;293;53.888;11.464;2022-10-20T11:09:19;12.80;99.90
612;DHT22;293;53.888;11.464;2022-10-20T11:12:01;12.90;99.70
612;DHT22;293;53.888;11.464;2022-10-20T11:14:36;12.90;99.30
612;DHT22;293;53.888;11.464;2022-10-20T11:17:16;12.80;99.50
612;DHT22;293;53.888;11.464;2022-10-20T11:20:00;12.80;99.50
612;DHT22;293;53.888;11.464;2022-10-20T11:22:38;12.80;99.40
612;DHT22;293;53.888;11.464;2022-10-20T11:25:15;12.70;99.50
612;DHT22;293;53.888;11.464;2022-10-20T11:27:45;12.70;99.60
612;DHT22;293;53.888;11.464;2022-10-20T11:30:14;12.80;99.60
612;DHT22;293;53.888;11.464;2022-10-20T11:32:46;12.80;99.50
612;DHT22;293;53.888;11.464;2022-10-20T11:35:21;12.80;99.50
612;DHT22;293;53.888;11.464;2022-10-20T11:37:56;12.90;99.60
612;DHT22;293;53.888;11.464;2022-10-20T11:40:33;12.90;99.80
612;DHT22;293;53.888;11.464;2022-10-20T11:43:06;13.00;99.50
612;DHT22;293;53.888;11.464;2022-10-20T11:45:44;13.10;99.10
612;DHT22;293;53.888;11.464;2022-10-20T11:48:17;13.10;99.00
612;DHT22;293;53.888;11.464;2022-10-20T11:50:50;13.00;99.10
612;DHT22;293;53.888;11.464;2022-10-20T11:53:33;13.10;99.00
612;DHT22;293;53.888;11.464;2022-10-20T11:56:14;13.10;98.90
612;DHT22;293;53.888;11.464;2022-10-20T11:59:03;13.20;99.00
612;DHT22;293;53.888;11.464;2022-10-20T12:01:36;13.20;99.10
612;DHT22;293;53.888;11.464;2022-10-20T12:04:24;13.10;99.00
612;DHT22;293;53.888;11.464;2022-10-20T12:10:13;13.20;99.30
612;DHT22;293;53.888;11.464;2022-10-20T12:12:52;13.20;98.60
612;DHT22;293;53.888;11.464;2022-10-20T12:15:22;13.20;98.60
612;DHT22;293;53.888;11.464;2022-10-20T12:17:51;13.20;98.20
612;DHT22;293;53.888;11.464;2022-10-20T12:20:46;13.20;98.10
612;DHT22;293;53.888;11.464;2022-10-20T12:26:42;13.30;97.80
612;DHT22;293;53.888;11.464;2022-10-20T12:29:45;13.20;97.30
612;DHT22;293;53.888;11.464;2022-10-20T12:32:35;13.30;97.50
612;DHT22;293;53.888;11.464;2022-10-20T12:35:28;13.30;97.60
612;DHT22;293;53.888;11.464;2022-10-20T12:37:57;13.50;97.60
612;DHT22;293;53.888;11.464;2022-10-20T12:40:29;13.50;97.50
612;DHT22;293;53.888;11.464;2022-10-20T12:42:58;13.50;97.10
612;DHT22;293;53.888;11.464;2022-10-20T12:45:35;13.60;96.70
612;DHT22;293;53.888;11.464;2022-10-20T12:48:03;13.60;96.40
612;DHT22;293;53.888;11.464;2022-10-20T12:50:34;13.70;96.00
612;DHT22;293;53.888;11.464;2022-10-20T12:53:12;13.70;96.00
612;DHT22;293;53.888;11.464;2022-10-20T12:55:45;13.70;96.20
612;DHT22;293;53.888;11.464;2022-10-20T12:58:26;13.70;96.20
612;DHT22;293;53.888;11.464;2022-10-20T13:01:05;13.70;95.50
612;DHT22;293;53.888;11.464;2022-10-20T13:03:44;13.80;95.50
612;DHT22;293;53.888;11.464;2022-10-20T13:06:42;13.80;94.60
612;DHT22;293;53.888;11.464;2022-10-20T13:09:20;13.80;94.70
612;DHT22;293;53.888;11.464;2022-10-20T13:12:02;13.90;95.20
612;DHT22;293;53.888;11.464;2022-10-20T13:14:47;13.80;95.00
612;DHT22;293;53.888;11.464;2022-10-20T13:20:17;13.90;94.90
612;DHT22;293;53.888;11.464;2022-10-20T13:22:48;13.90;94.80
612;DHT22;293;53.888;11.464;2022-10-20T13:25:36;13.90;95.00
612;DHT22;293;53.888;11.464;2022-10-20T13:28:17;13.90;94.20
612;DHT22;293;53.888;11.464;2022-10-20T13:31:01;13.90;94.30
612;DHT22;293;53.888;11.464;2022-10-20T13:33:33;13.80;94.40
612;DHT22;293;53.888;11.464;2022-10-20T13:36:08;13.80;94.30
612;DHT22;293;53.888;11.464;2022-10-20T13:38:40;13.80;94.40
612;DHT22;293;53.888;11.464;2022-10-20T13:41:14;13.80;94.80
612;DHT22;293;53.888;11.464;2022-10-20T13:43:48;13.80;94.80
612;DHT22;293;53.888;11.464;2022-10-20T13:46:33;13.80;94.70
612;DHT22;293;53.888;11.464;2022-10-20T13:49:13;13.80;94.70
612;DHT22;293;53.888;11.464;2022-10-20T13:51:47;13.80;94.80
612;DHT22;293;53.888;11.464;2022-10-20T13:54:19;13.80;94.70
612;DHT22;293;53.888;11.464;2022-10-20T13:56:48;13.70;94.70
612;DHT22;293;53.888;11.464;2022-10-20T13:59:20;13.70;94.60
612;DHT22;293;53.888;11.464;2022-10-20T14:01:51;13.60;94.40
612;DHT22;293;53.888;11.464;2022-10-20T14:04:23;13.60;94.40
612;DHT22;293;53.888;11.464;2022-10-20T14:06:51;13.50;94.90
612;DHT22;293;53.888;11.464;2022-10-20T14:09:20;13.60;94.60
612;DHT22;293;53.888;11.464;2022-10-20T14:11:49;13.60;94.90
612;DHT22;293;53.888;11.464;2022-10-20T14:14:21;13.60;95.00
612;DHT22;293;53.888;11.464;2022-10-20T14:16:52;13.70;95.40
612;DHT22;293;53.888;11.464;2022-10-20T14:19:21;13.70;95.60
612;DHT22;293;53.888;11.464;2022-10-20T14:21:52;13.70;95.50
612;DHT22;293;53.888;11.464;2022-10-20T14:24:28;13.60;95.40
612;DHT22;293;53.888;11.464;2022-10-20T14:26:58;13.60;95.50
612;DHT22;293;53.888;11.464;2022-10-20T14:29:28;13.50;95.50
612;DHT22;293;53.888;11.464;2022-10-20T14:31:58;13.40;95.50
612;DHT22;293;53.888;11.464;2022-10-20T14:34:27;13.40;95.60
612;DHT22;293;53.888;11.464;2022-10-20T14:36:56;13.30;95.70
612;DHT22;293;53.888;11.464;2022-10-20T14:39:31;13.30;95.70
612;DHT22;293;53.888;11.464;2022-10-20T14:42:03;13.20;95.80
612;DHT22;293;53.888;11.464;2022-10-20T14:44:30;13.20;95.90
612;DHT22;293;53.888;11.464;2022-10-20T14:47:00;13.10;96.00
612;DHT22;293;53.888;11.464;2022-10-20T14:49:32;13.00;96.20
612;DHT22;293;53.888;11.464;2022-10-20T14:52:01;13.00;96.30
612;DHT22;293;53.888;11.464;2022-10-20T14:54:33;12.90;96.40
612;DHT22;293;53.888;11.464;2022-10-20T14:59:49;12.90;96.60
612;DHT22;293;53.888;11.464;2022-10-20T15:02:20;12.80;96.70
612;DHT22;293;53.888;11.464;2022-10-20T15:04:49;12.80;97.00
612;DHT22;293;53.888;11.464;2022-10-20T15:07:20;12.70;97.20
612;DHT22;293;53.888;11.464;2022-10-20T15:09:49;12.60;97.40
612;DHT22;293;53.888;11.464;2022-10-20T15:12:18;12.60;97.50
612;DHT22;293;53.888;11.464;2022-10-20T15:14:47;12.60;97.60
612;DHT22;293;53.888;11.464;2022-10-20T15:17:32;12.60;97.70
612;DHT22;293;53.888;11.464;2022-10-20T15:22:57;12.60;98.00
612;DHT22;293;53.888;11.464;2022-10-20T15:25:25;12.50;98.10
612;DHT22;293;53.888;11.464;2022-10-20T15:27:54;12.40;98.40
612;DHT22;293;53.888;11.464;2022-10-20T15:30:22;12.30;98.50
612;DHT22;293;53.888;11.464;2022-10-20T15:32:51;12.30;98.60
612;DHT22;293;53.888;11.464;2022-10-20T15:35:20;12.30;98.60
612;DHT22;293;53.888;11.464;2022-10-20T15:37:50;12.20;98.80
612;DHT22;293;53.888;11.464;2022-10-20T15:40:18;12.20;99.00
612;DHT22;293;53.888;11.464;2022-10-20T15:42:45;12.10;99.20
612;DHT22;293;53.888;11.464;2022-10-20T15:45:15;12.10;99.30
612;DHT22;293;53.888;11.464;2022-10-20T15:47:42;12.00;99.40
612;DHT22;293;53.888;11.464;2022-10-20T15:50:11;12.00;99.50
612;DHT22;293;53.888;11.464;2022-10-20T15:52:38;12.00;99.60
612;DHT22;293;53.888;11.464;2022-10-20T15:55:19;11.90;99.60
612;DHT22;293;53.888;11.464;2022-10-20T15:57:48;11.80;99.80
612;DHT22;293;53.888;11.464;2022-10-20T16:00:17;11.80;99.90
612;DHT22;293;53.888;11.464;2022-10-20T16:02:45;11.70;99.90
612;DHT22;293;53.888;11.464;2022-10-20T16:05:13;11.70;99.90
612;DHT22;293;53.888;11.464;2022-10-20T16:07:40;11.70;99.90
612;DHT22;293;53.888;11.464;2022-10-20T16:10:08;11.60;99.90
612;DHT22;293;53.888;11.464;2022-10-20T16:12:35;11.60;99.90
612;DHT22;293;53.888;11.464;2022-10-20T16:15:03;11.60;99.90
612;DHT22;293;53.888;11.464;2022-10-20T16:17:30;11.50;99.90
612;DHT22;293;53.888;11.464;2022-10-20T16:19:57;11.50;99.90
612;DHT22;293;53.888;11.464;2022-10-20T16:22:25;11.40;99.90
612;DHT22;293;53.888;11.464;2022-10-20T16:24:52;11.40;99.90
612;DHT22;293;53.888;11.464;2022-10-20T16:27:20;11.30;99.90
612;DHT22;293;53.888;11.464;2022-10-20T16:29:46;11.30;99.90
612;DHT22;293;53.888;11.464;2022-10-20T16:32:13;11.20;99.90
612;DHT22;293;53.888;11.464;2022-10-20T16:34:40;11.10;99.90
612;DHT22;293;53.888;11.464;2022-10-20T16:37:07;11.10;99.90
612;DHT22;293;53.888;11.464;2022-10-20T16:39:35;11.00;99.90
612;DHT22;293;53.888;11.464;2022-10-20T16:42:02;11.00;99.90
612;DHT22;293;53.888;11.464;2022-10-20T16:44:29;11.00;99.90
612;DHT22;293;53.888;11.464;2022-10-20T16:46:56;10.90;99.90
612;DHT22;293;53.888;11.464;2022-10-20T16:49:23;10.90;99.90
612;DHT22;293;53.888;11.464;2022-10-20T16:51:50;10.90;99.90
612;DHT22;293;53.888;11.464;2022-10-20T16:54:17;10.80;99.90
612;DHT22;293;53.888;11.464;2022-10-20T16:56:45;10.90;99.90
612;DHT22;293;53.888;11.464;2022-10-20T16:59:13;10.80;99.90
612;DHT22;293;53.888;11.464;2022-10-20T17:01:40;10.80;99.90
612;DHT22;293;53.888;11.464;2022-10-20T17:04:06;10.80;99.90
612;DHT22;293;53.888;11.464;2022-10-20T17:06:33;10.80;99.90